createdAt,value
2023-05-14T00:02:01.951Z,50.14
2023-05-14T00:04:35.329Z,50.07
2023-05-14T00:07:11.844Z,50.27
2023-05-14T00:09:45.230Z,50.25
2023-05-14T00:26:00.875Z,50.55
2023-05-14T00:28:34.122Z,50.51
2023-05-14T00:31:08.004Z,50.43
2023-05-14T00:33:41.124Z,50.46
2023-05-14T00:36:15.009Z,50.18
2023-05-14T00:38:49.111Z,50.33
2023-05-14T00:41:24.868Z,50.45
2023-05-14T00:51:09.843Z,50.45
2023-05-14T00:53:49.865Z,50.20
2023-05-14T00:56:27.221Z,49.97
2023-05-14T00:59:08.875Z,50.09
2023-05-14T01:01:42.829Z,50.22
2023-05-14T01:04:18.871Z,50.44
2023-05-14T01:17:39.882Z,50.07
2023-05-14T01:20:14.958Z,50.38
2023-05-14T01:22:49.858Z,50.36
2023-05-14T01:25:23.235Z,50.22
2023-05-14T01:28:09.008Z,50.29
2023-05-14T01:30:49.888Z,50.15
2023-05-14T01:44:01.827Z,50.20
2023-05-14T01:46:41.888Z,50.05
2023-05-14T01:49:15.149Z,50.03
2023-05-14T01:51:48.842Z,50.19
2023-05-14T01:54:22.105Z,50.11
2023-05-14T01:56:56.847Z,50.14
2023-05-14T01:59:32.024Z,50.23
2023-05-14T02:12:19.828Z,50.13
2023-05-14T02:15:01.851Z,50.40
2023-05-14T02:17:36.098Z,50.19
2023-05-14T02:20:10.897Z,50.27
2023-05-14T02:22:44.839Z,50.13
2023-05-14T02:25:17.841Z,50.46
2023-05-14T02:38:30.682Z,50.38
2023-05-14T02:41:04.142Z,50.41
2023-05-14T02:43:39.011Z,50.43
2023-05-14T02:46:12.092Z,50.46
2023-05-14T02:48:45.862Z,50.44
2023-05-14T02:51:19.937Z,50.37
2023-05-14T03:04:17.819Z,50.08
2023-05-14T03:06:57.864Z,50.16
2023-05-14T03:09:31.138Z,50.33
2023-05-14T03:12:04.863Z,49.92
2023-05-14T03:14:38.263Z,49.97
2023-05-14T03:17:11.917Z,50.02
2023-05-14T03:19:47.193Z,50.06
2023-05-14T03:32:35.837Z,50.39
2023-05-14T03:35:17.870Z,50.24
2023-05-14T03:37:51.729Z,50.40
2023-05-14T03:40:25.114Z,50.29
2023-05-14T03:42:59.156Z,50.46
2023-05-14T03:45:33.005Z,50.61
2023-05-14T03:58:44.851Z,50.67
2023-05-14T04:01:18.458Z,50.83
2023-05-14T04:03:51.951Z,50.82
2023-05-14T04:06:25.306Z,50.94
2023-05-14T04:08:58.840Z,50.79
2023-05-14T04:11:37.272Z,50.85
2023-05-14T04:24:32.806Z,51.24
2023-05-14T04:27:15.866Z,51.24
2023-05-14T04:29:50.195Z,51.23
2023-05-14T04:32:23.884Z,51.55
2023-05-14T04:34:57.164Z,51.40
2023-05-14T04:37:30.827Z,51.42
2023-05-14T04:40:08.465Z,51.63
2023-05-14T04:53:03.825Z,51.61
2023-05-14T04:55:45.838Z,51.44
2023-05-14T04:58:19.086Z,51.67
2023-05-14T05:00:52.915Z,51.80
2023-05-14T05:03:26.208Z,51.69
2023-05-14T05:05:59.891Z,51.82
2023-05-14T05:19:11.952Z,51.83
2023-05-14T05:21:45.193Z,51.93
2023-05-14T05:24:18.853Z,51.96
2023-05-14T05:26:52.106Z,52.13
2023-05-14T05:29:25.849Z,52.11
2023-05-14T05:32:20.330Z,52.17
2023-05-14T05:45:24.814Z,52.51
2023-05-14T05:48:04.948Z,52.43
2023-05-14T05:50:38.205Z,52.57
2023-05-14T05:53:11.986Z,52.71
2023-05-14T05:55:45.079Z,52.53
2023-05-14T05:58:18.842Z,52.72
2023-05-14T06:00:54.035Z,52.35
2023-05-14T06:13:42.803Z,52.58
2023-05-14T06:16:24.873Z,52.53
2023-05-14T06:18:58.188Z,52.34
2023-05-14T06:21:31.892Z,52.16
2023-05-14T06:24:06.465Z,51.89
2023-05-14T06:26:39.825Z,51.32
2023-05-14T06:39:51.858Z,50.56
2023-05-14T06:42:25.188Z,50.31
2023-05-14T06:44:58.859Z,50.43
2023-05-14T06:47:32.338Z,50.52
2023-05-14T06:50:05.879Z,50.38
2023-05-14T07:06:42.815Z,49.17
2023-05-14T07:09:22.845Z,49.16
2023-05-14T07:11:56.260Z,48.49
2023-05-14T07:14:29.874Z,48.49
2023-05-14T07:17:03.719Z,48.30
2023-05-14T07:19:36.845Z,48.21
2023-05-14T07:32:48.869Z,47.69
2023-05-14T07:35:22.992Z,47.75
2023-05-14T07:37:56.846Z,47.46
2023-05-14T07:40:30.106Z,47.58
2023-05-14T07:43:03.838Z,47.75
2023-05-14T07:45:37.699Z,47.74
2023-05-14T07:58:30.861Z,48.26
2023-05-14T08:01:10.890Z,48.21
2023-05-14T08:03:44.216Z,48.40
2023-05-14T08:06:17.862Z,48.25
2023-05-14T08:08:51.058Z,48.56
2023-05-14T08:11:24.834Z,48.14
2023-05-14T08:25:15.889Z,48.52
2023-05-14T08:27:49.139Z,47.99
2023-05-14T08:30:23.359Z,47.83
2023-05-14T08:32:58.460Z,48.18
2023-05-14T08:35:31.880Z,47.93
2023-05-14T08:38:05.085Z,47.78
2023-05-14T08:40:40.864Z,47.85
2023-05-14T08:53:50.850Z,47.29
2023-05-14T08:56:27.305Z,47.73
2023-05-14T08:59:07.941Z,47.79
2023-05-14T09:01:47.800Z,47.60
2023-05-14T09:04:30.736Z,47.51
2023-05-14T09:20:58.825Z,47.15
2023-05-14T09:23:39.842Z,47.10
2023-05-14T09:26:17.197Z,47.13
2023-05-14T09:29:00.839Z,46.78
2023-05-14T09:31:34.226Z,46.88
2023-05-14T09:47:56.925Z,45.92
2023-05-14T09:50:30.094Z,46.02
2023-05-14T09:53:04.857Z,45.60
2023-05-14T09:55:38.245Z,45.63
2023-05-14T09:58:11.926Z,45.79
2023-05-14T10:00:46.654Z,45.79
2023-05-14T10:13:43.816Z,45.16
2023-05-14T10:16:33.938Z,43.99
2023-05-14T10:19:10.951Z,43.33
2023-05-14T10:21:47.820Z,42.03
2023-05-14T10:24:22.433Z,42.85
2023-05-14T10:26:55.845Z,43.36
2023-05-14T10:40:09.864Z,44.57
2023-05-14T10:42:43.724Z,45.46
2023-05-14T10:45:19.897Z,45.19
2023-05-14T10:47:53.717Z,45.14
2023-05-14T10:50:27.038Z,44.53
2023-05-14T10:53:00.723Z,44.54
2023-05-14T10:55:36.853Z,43.74
2023-05-14T11:05:42.818Z,42.43
2023-05-14T11:08:25.909Z,43.27
2023-05-14T11:11:02.198Z,42.77
2023-05-14T11:13:36.923Z,42.70
2023-05-14T11:18:53.916Z,41.65
2023-05-14T11:21:27.241Z,42.73
2023-05-14T11:34:17.819Z,42.94
2023-05-14T11:36:57.853Z,42.76
2023-05-14T11:43:10.869Z,40.93
2023-05-14T11:45:49.870Z,41.80
2023-05-14T11:48:30.903Z,40.21
2023-05-14T11:51:06.461Z,39.85
2023-05-14T12:00:36.879Z,39.05
2023-05-14T12:03:10.836Z,40.29
2023-05-14T12:05:44.853Z,40.41
2023-05-14T12:08:27.092Z,40.06
2023-05-14T12:11:08.716Z,39.56
2023-05-14T12:27:45.865Z,38.11
2023-05-14T12:30:25.847Z,38.37
2023-05-14T12:32:59.112Z,39.33
2023-05-14T12:35:32.857Z,39.22
2023-05-14T12:38:06.438Z,38.22
2023-05-14T12:40:39.855Z,37.07
2023-05-14T12:53:51.880Z,37.07
2023-05-14T12:56:25.244Z,37.22
2023-05-14T12:58:58.868Z,38.33
2023-05-14T13:01:32.112Z,38.33
2023-05-14T13:04:05.868Z,38.31
2023-05-14T13:06:39.614Z,37.42
2023-05-14T13:19:29.857Z,37.81
2023-05-14T13:22:10.809Z,38.06
2023-05-14T13:24:44.269Z,37.88
2023-05-14T13:27:17.876Z,38.43
2023-05-14T13:29:51.161Z,38.41
2023-05-14T13:32:24.879Z,38.00
2023-05-14T13:46:11.891Z,38.47
2023-05-14T13:48:45.097Z,39.01
2023-05-14T13:51:18.892Z,39.25
2023-05-14T13:53:52.116Z,39.31
2023-05-14T13:56:25.851Z,39.34
2023-05-14T13:58:59.212Z,39.37
2023-05-14T14:01:34.936Z,38.99
2023-05-14T14:14:44.855Z,37.52
2023-05-14T14:17:20.107Z,37.31
2023-05-14T14:19:53.958Z,37.71
2023-05-14T14:22:29.034Z,37.46
2023-05-14T14:25:03.041Z,37.72
2023-05-14T14:27:36.151Z,37.55
2023-05-14T14:40:26.833Z,37.97
2023-05-14T14:43:06.868Z,38.61
2023-05-14T14:45:40.253Z,39.07
2023-05-14T14:48:31.856Z,39.49
2023-05-14T14:51:07.097Z,39.50
2023-05-14T15:07:22.873Z,40.00
2023-05-14T15:09:56.116Z,40.60
2023-05-14T15:12:29.886Z,40.48
2023-05-14T15:15:04.211Z,40.67
2023-05-14T15:17:37.926Z,40.30
2023-05-14T15:20:12.500Z,40.56
2023-05-14T15:22:48.968Z,40.82
2023-05-14T15:33:11.884Z,40.68
2023-05-14T15:35:56.889Z,40.74
2023-05-14T15:38:32.101Z,40.16
2023-05-14T15:41:05.856Z,40.09
2023-05-14T15:43:39.098Z,40.05
2023-05-14T15:46:12.925Z,40.35
2023-05-14T15:59:56.923Z,40.79
2023-05-14T16:02:31.276Z,41.26
2023-05-14T16:05:04.864Z,40.67
2023-05-14T16:07:38.291Z,40.84
2023-05-14T16:10:13.907Z,40.97
2023-05-14T16:12:47.210Z,41.01
2023-05-14T16:15:22.881Z,41.34
2023-05-14T16:28:33.067Z,41.19
2023-05-14T16:31:08.171Z,41.61
2023-05-14T16:33:42.008Z,41.33
2023-05-14T16:36:15.161Z,41.04
2023-05-14T16:39:06.153Z,41.36
2023-05-14T16:41:41.184Z,41.73
2023-05-14T16:54:41.854Z,41.63
2023-05-14T16:57:21.984Z,41.53
2023-05-14T16:59:55.121Z,42.03
2023-05-14T17:02:28.898Z,42.15
2023-05-14T17:05:02.194Z,42.00
2023-05-14T17:07:35.872Z,41.92
2023-05-14T17:20:47.865Z,41.11
2023-05-14T17:23:25.903Z,40.25
2023-05-14T17:26:05.882Z,39.47
2023-05-14T17:28:39.111Z,39.18
2023-05-14T17:31:13.778Z,39.39
2023-05-14T17:33:47.226Z,39.20
2023-05-14T17:36:23.006Z,39.86
2023-05-14T17:46:52.890Z,40.94
2023-05-14T17:49:32.891Z,41.38
2023-05-14T17:52:08.247Z,41.73
2023-05-14T17:54:41.890Z,41.61
2023-05-14T17:57:15.253Z,41.60
2023-05-14T17:59:48.878Z,41.93
2023-05-14T18:02:22.116Z,42.05
2023-05-14T18:15:14.850Z,42.65
2023-05-14T18:17:55.020Z,42.74
2023-05-14T18:20:28.214Z,43.22
2023-05-14T18:23:01.900Z,43.55
2023-05-14T18:25:35.502Z,43.24
2023-05-14T18:41:51.027Z,44.34
2023-05-14T18:44:24.206Z,44.61
2023-05-14T18:46:57.878Z,44.75
2023-05-14T18:49:31.111Z,44.65
2023-05-14T18:52:04.877Z,44.41
2023-05-14T18:54:38.146Z,44.39
2023-05-14T18:57:13.941Z,44.67
2023-05-14T19:07:13.867Z,45.03
2023-05-14T19:09:53.882Z,45.12
2023-05-14T19:12:29.151Z,44.86
2023-05-14T19:15:02.893Z,45.29
2023-05-14T19:17:36.608Z,45.26
2023-05-14T19:20:11.901Z,45.17
2023-05-14T19:22:45.186Z,45.60
2023-05-14T19:35:35.844Z,46.17
2023-05-14T19:38:16.774Z,45.99
2023-05-14T19:40:50.106Z,46.23
2023-05-14T19:43:24.064Z,46.24
2023-05-14T19:45:57.491Z,46.56
2023-05-14T20:02:12.883Z,46.93
2023-05-14T20:04:47.356Z,46.89
2023-05-14T20:07:20.873Z,47.17
2023-05-14T20:09:54.249Z,47.30
2023-05-14T20:12:27.902Z,47.30
2023-05-14T20:15:01.161Z,47.17
2023-05-14T20:17:36.939Z,46.96
2023-05-14T20:27:30.850Z,47.75
2023-05-14T20:30:18.894Z,47.64
2023-05-14T20:32:54.205Z,47.82
2023-05-14T20:35:27.910Z,47.57
2023-05-14T20:38:01.279Z,47.60
2023-05-14T20:54:17.899Z,47.93
2023-05-14T20:56:51.268Z,47.68
2023-05-14T20:59:24.873Z,47.78
2023-05-14T21:01:58.379Z,47.73
2023-05-14T21:04:32.009Z,47.75
2023-05-14T21:07:05.873Z,48.05
2023-05-14T21:23:20.898Z,48.18
2023-05-14T21:25:54.188Z,48.17
2023-05-14T21:28:27.908Z,48.33
2023-05-14T21:31:01.146Z,47.93
2023-05-14T21:33:34.895Z,48.00
2023-05-14T21:36:08.496Z,47.93
2023-05-14T21:48:58.913Z,48.14
2023-05-14T21:51:39.830Z,48.11
2023-05-14T21:54:13.097Z,48.21
2023-05-14T21:56:46.883Z,48.43
2023-05-14T21:59:20.192Z,48.43
2023-05-14T22:15:08.898Z,48.57
2023-05-14T22:17:42.078Z,48.61
2023-05-14T22:20:21.891Z,48.94
2023-05-14T22:22:55.117Z,48.39
2023-05-14T22:25:28.870Z,48.63
2023-05-14T22:41:56.858Z,48.50
2023-05-14T22:44:36.871Z,48.90
2023-05-14T22:47:10.249Z,48.92
2023-05-14T22:49:44.956Z,48.80
2023-05-14T22:52:18.293Z,48.95
2023-05-14T22:54:52.044Z,48.68
2023-05-14T22:57:27.125Z,48.81
2023-05-14T23:10:16.867Z,49.19
2023-05-14T23:12:58.885Z,49.08
2023-05-14T23:15:33.161Z,49.01
2023-05-14T23:18:06.965Z,49.42
2023-05-14T23:20:40.310Z,49.31
2023-05-14T23:36:55.882Z,49.57
2023-05-14T23:39:30.407Z,49.38
2023-05-14T23:42:03.890Z,49.44
2023-05-14T23:44:37.148Z,49.91
2023-05-14T23:47:11.877Z,50.10
